Time;durP1;ratioP1;P1;durP2;ratioP2;P2;SDS_P1;SDS_P2;PMS_P1;PMS_P2;Temp;Humidity;BMP_temperature;BMP_pressure;BME280_temperature;BME280_humidity;BME280_pressure;Samples;Min_cycle;Max_cycle;Signal;HPM_P1;HPM_P2
2023/08/24 00:01:29;;;;;;;12.20;4.28;;;18.00;99.90;;;;;;5052928;28;20516;-63
2023/08/24 00:03:56;;;;;;;6.32;3.75;;;18.00;99.90;;;;;;5053367;28;20049;-62
2023/08/24 00:06:22;;;;;;;5.65;3.90;;;17.90;99.90;;;;;;5053378;28;20052;-63
2023/08/24 00:08:48;;;;;;;7.95;4.85;;;18.00;99.90;;;;;;5054509;28;20491;-63
2023/08/24 00:11:15;;;;;;;5.75;4.28;;;17.90;99.90;;;;;;5054326;28;20136;-62
2023/08/24 00:13:48;;;;;;;6.35;4.05;;;17.80;99.90;;;;;;5053232;28;20049;-63
2023/08/24 00:16:19;;;;;;;10.27;4.53;;;17.80;99.90;;;;;;5053169;28;20056;-63
2023/08/24 00:18:46;;;;;;;8.10;4.60;;;17.80;99.90;;;;;;5035814;28;20107;-62
2023/08/24 00:21:22;;;;;;;6.20;4.15;;;17.70;99.90;;;;;;5052908;28;20045;-63
2023/08/24 00:23:49;;;;;;;7.95;5.15;;;17.60;99.90;;;;;;5052990;28;20041;-63
2023/08/24 00:26:16;;;;;;;9.60;4.95;;;17.60;99.90;;;;;;5053780;28;20053;-63
2023/08/24 00:28:43;;;;;;;8.35;4.28;;;17.50;99.90;;;;;;5035903;28;20491;-62
2023/08/24 00:31:09;;;;;;;7.53;4.22;;;17.40;99.90;;;;;;5034978;28;20053;-63
2023/08/24 00:33:36;;;;;;;5.82;4.53;;;17.50;99.90;;;;;;5052748;28;20044;-63
2023/08/24 00:36:05;;;;;;;7.90;5.47;;;17.40;99.90;;;;;;5035050;28;20184;-63
2023/08/24 00:38:31;;;;;;;7.00;4.95;;;17.40;99.90;;;;;;5060573;28;20373;-63
2023/08/24 00:40:59;;;;;;;7.55;5.05;;;17.40;99.90;;;;;;5054968;28;20045;-63
2023/08/24 00:43:26;;;;;;;7.70;4.80;;;17.30;99.90;;;;;;5072869;28;20048;-63
2023/08/24 00:45:55;;;;;;;7.35;5.13;;;17.30;99.90;;;;;;5054997;28;20166;-63
2023/08/24 00:48:25;;;;;;;8.15;4.85;;;17.30;99.90;;;;;;5072779;28;20045;-62
2023/08/24 00:50:53;;;;;;;8.25;5.40;;;17.30;99.90;;;;;;5072258;28;20101;-62
2023/08/24 00:53:20;;;;;;;8.88;5.32;;;17.20;99.90;;;;;;5071834;28;20111;-63
2023/08/24 00:55:47;;;;;;;8.55;5.30;;;17.30;99.90;;;;;;5054792;28;20056;-63
2023/08/24 00:58:14;;;;;;;8.70;5.25;;;17.20;99.90;;;;;;5072483;28;20118;-62
2023/08/24 01:00:41;;;;;;;8.40;5.35;;;17.30;99.90;;;;;;5071778;28;20465;-62
2023/08/24 01:03:07;;;;;;;6.13;5.03;;;17.20;99.90;;;;;;5071937;28;20048;-62
2023/08/24 01:05:33;;;;;;;8.25;5.30;;;17.20;99.90;;;;;;5072581;28;20050;-61
2023/08/24 01:08:00;;;;;;;7.30;4.90;;;17.20;99.90;;;;;;5071060;28;20441;-62
2023/08/24 01:10:51;;;;;;;7.28;5.07;;;17.20;99.90;;;;;;5054468;28;20463;-62
2023/08/24 01:14:03;;;;;;;5.95;5.05;;;17.10;99.90;;;;;;5021281;28;20071;-63
2023/08/24 01:16:34;;;;;;;7.93;4.97;;;17.30;99.90;;;;;;5054647;28;20393;-62
2023/08/24 01:19:03;;;;;;;6.10;4.85;;;17.20;99.90;;;;;;5071456;28;20462;-62
2023/08/24 01:21:31;;;;;;;7.20;4.85;;;17.30;99.90;;;;;;5071426;28;20063;-61
2023/08/24 01:24:03;;;;;;;8.88;4.70;;;17.30;99.90;;;;;;5054119;28;20049;-62
2023/08/24 01:26:30;;;;;;;8.00;4.97;;;17.30;99.90;;;;;;5072532;28;20052;-63
2023/08/24 01:28:57;;;;;;;6.80;5.10;;;17.30;99.90;;;;;;5072159;28;20106;-63
2023/08/24 01:31:39;;;;;;;7.25;4.80;;;17.40;99.90;;;;;;5037721;28;20123;-62
2023/08/24 01:34:05;;;;;;;6.60;5.10;;;17.40;99.90;;;;;;5071659;28;20154;-62
2023/08/24 01:36:33;;;;;;;7.53;5.22;;;17.50;99.90;;;;;;5054285;28;20041;-63
2023/08/24 01:39:09;;;;;;;7.20;4.68;;;17.40;99.90;;;;;;5056906;28;20064;-63
2023/08/24 01:41:42;;;;;;;6.13;4.60;;;17.40;99.90;;;;;;5071624;28;20048;-62
2023/08/24 01:44:14;;;;;;;8.05;4.45;;;17.50;99.90;;;;;;5071844;28;20106;-62
2023/08/24 01:46:42;;;;;;;7.22;4.78;;;17.50;99.90;;;;;;5072087;28;20045;-62
2023/08/24 01:49:12;;;;;;;7.13;4.88;;;17.60;99.90;;;;;;5053890;28;20044;-63
2023/08/24 01:52:10;;;;;;;7.47;4.35;;;17.60;99.90;;;;;;5071431;28;20052;-63
2023/08/24 01:54:37;;;;;;;5.65;4.70;;;17.60;99.90;;;;;;5049781;28;20052;-63
2023/08/24 01:57:06;;;;;;;6.97;4.53;;;17.60;99.90;;;;;;5092234;28;20052;-63
2023/08/24 01:59:32;;;;;;;8.02;4.60;;;17.60;99.90;;;;;;5073748;28;20464;-63
2023/08/24 02:01:58;;;;;;;8.95;4.93;;;17.60;99.90;;;;;;5091830;28;20048;-63
2023/08/24 02:04:25;;;;;;;7.40;4.40;;;17.70;99.90;;;;;;5080491;28;20055;-62
2023/08/24 02:06:51;;;;;;;8.93;4.63;;;17.70;99.90;;;;;;5071357;28;20420;-62
2023/08/24 02:09:17;;;;;;;5.20;4.68;;;17.50;99.90;;;;;;5071758;28;20052;-62
2023/08/24 02:11:56;;;;;;;9.70;5.47;;;17.50;99.90;;;;;;5071808;28;20056;-62
2023/08/24 02:14:34;;;;;;;5.30;4.47;;;17.50;99.90;;;;;;5081945;28;20056;-62
2023/08/24 02:17:01;;;;;;;8.88;4.97;;;17.40;99.90;;;;;;5091987;28;20044;-61
2023/08/24 02:19:27;;;;;;;8.38;4.85;;;17.50;99.90;;;;;;5093316;28;20044;-62
2023/08/24 02:21:53;;;;;;;7.47;4.85;;;17.50;99.90;;;;;;5095665;28;20055;-62
2023/08/24 02:24:20;;;;;;;10.50;5.32;;;17.40;99.90;;;;;;5067236;28;20064;-63
2023/08/24 02:26:47;;;;;;;8.23;5.00;;;17.40;99.90;;;;;;5075770;28;20356;-63
2023/08/24 02:29:15;;;;;;;8.93;4.95;;;17.40;99.90;;;;;;5058653;28;20060;-62
2023/08/24 02:31:44;;;;;;;9.18;5.30;;;17.40;99.90;;;;;;5075201;28;20052;-62
2023/08/24 02:34:10;;;;;;;6.53;5.07;;;17.40;99.90;;;;;;5083331;28;20040;-62
2023/08/24 02:36:36;;;;;;;6.97;5.40;;;17.40;99.90;;;;;;5095871;28;20117;-62
2023/08/24 02:39:02;;;;;;;7.47;5.15;;;17.40;99.90;;;;;;5073946;28;20049;-63
2023/08/24 02:41:29;;;;;;;7.13;4.68;;;17.40;99.90;;;;;;5073811;28;20373;-61
2023/08/24 02:43:56;;;;;;;7.35;4.75;;;17.40;99.90;;;;;;5075529;28;20053;-62
2023/08/24 02:46:25;;;;;;;7.10;5.15;;;17.40;99.90;;;;;;5075056;28;20366;-62
2023/08/24 02:48:52;;;;;;;8.63;5.63;;;17.40;99.90;;;;;;5075338;28;20051;-62
2023/08/24 02:51:21;;;;;;;9.85;6.10;;;17.40;99.90;;;;;;5074587;28;20154;-63
2023/08/24 02:53:47;;;;;;;6.82;4.88;;;17.30;99.90;;;;;;5074790;28;20390;-63
2023/08/24 02:56:13;;;;;;;9.05;5.40;;;17.30;99.90;;;;;;5075382;28;20437;-63
2023/08/24 02:58:44;;;;;;;9.43;5.90;;;17.30;99.90;;;;;;5075018;28;20059;-62
2023/08/24 03:01:10;;;;;;;8.52;6.20;;;17.30;99.90;;;;;;5074680;28;20045;-61
2023/08/24 03:03:37;;;;;;;10.65;6.32;;;17.30;99.90;;;;;;5074279;28;20044;-61
2023/08/24 03:06:06;;;;;;;8.05;5.88;;;17.30;99.90;;;;;;5074545;28;20044;-61
2023/08/24 03:08:35;;;;;;;;;;;17.30;99.90;;;;;;5075049;28;20048;-61
2023/08/24 03:11:03;;;;;;;8.77;6.03;;;17.20;99.90;;;;;;5074352;28;19931;-61
2023/08/24 03:13:30;;;;;;;11.05;6.78;;;17.20;99.90;;;;;;5056680;28;20045;-62
2023/08/24 03:15:57;;;;;;;7.97;6.65;;;17.20;99.90;;;;;;5067389;28;20080;-61
2023/08/24 03:18:25;;;;;;;8.75;6.22;;;17.20;99.90;;;;;;5074443;28;20052;-61
2023/08/24 03:20:52;;;;;;;9.43;6.22;;;17.10;99.90;;;;;;5074241;28;20045;-61
2023/08/24 03:23:18;;;;;;;8.43;6.30;;;17.20;99.90;;;;;;5074652;28;20142;-61
2023/08/24 03:25:45;;;;;;;8.63;5.97;;;17.20;99.90;;;;;;5056524;28;20113;-62
2023/08/24 03:28:11;;;;;;;6.70;6.00;;;17.20;99.90;;;;;;5074126;28;20088;-61
2023/08/24 03:30:45;;;;;;;9.60;5.95;;;17.10;99.90;;;;;;5038024;28;20071;-61
2023/08/24 03:33:12;;;;;;;8.63;5.95;;;17.00;99.90;;;;;;5056591;28;20415;-62
2023/08/24 03:35:40;;;;;;;7.25;5.97;;;16.90;99.90;;;;;;5056598;28;20530;-62
2023/08/24 03:38:06;;;;;;;10.50;5.90;;;17.00;99.90;;;;;;5056140;28;20529;-62
2023/08/24 03:40:32;;;;;;;8.48;5.82;;;16.90;99.90;;;;;;5073979;28;20098;-62
2023/08/24 03:42:59;;;;;;;8.23;5.65;;;16.90;99.90;;;;;;5073884;28;20071;-62
2023/08/24 03:45:25;;;;;;;12.05;5.60;;;16.90;99.90;;;;;;5073752;28;20052;-63
2023/08/24 03:47:53;;;;;;;8.48;6.00;;;16.80;99.90;;;;;;5074109;28;20056;-62
2023/08/24 03:50:24;;;;;;;6.70;6.00;;;16.80;99.90;;;;;;5069442;28;20131;-62
2023/08/24 03:52:51;;;;;;;9.07;6.07;;;16.70;99.90;;;;;;5073978;28;20060;-62
2023/08/24 03:55:21;;;;;;;8.30;5.63;;;16.70;99.90;;;;;;5058484;28;20048;-62
2023/08/24 03:57:51;;;;;;;8.07;6.20;;;16.70;99.90;;;;;;5073264;28;20307;-61
2023/08/24 04:00:18;;;;;;;8.55;6.10;;;16.60;99.90;;;;;;5073645;28;20049;-62
2023/08/24 04:02:45;;;;;;;8.48;6.15;;;16.70;99.90;;;;;;5057596;28;20061;-62
2023/08/24 04:05:16;;;;;;;7.15;6.05;;;16.70;99.90;;;;;;5069720;28;20055;-62
2023/08/24 04:07:42;;;;;;;10.30;6.18;;;16.70;99.90;;;;;;5073874;28;20044;-62
2023/08/24 04:10:09;;;;;;;9.00;6.45;;;16.60;99.90;;;;;;5073634;28;20045;-62
2023/08/24 04:12:37;;;;;;;6.93;5.93;;;16.60;99.90;;;;;;5072276;28;20060;-62
2023/08/24 04:15:04;;;;;;;7.90;6.55;;;16.50;99.90;;;;;;5060529;28;20063;-61
2023/08/24 04:17:31;;;;;;;9.85;6.80;;;16.50;99.90;;;;;;5073076;28;20342;-63
2023/08/24 04:19:57;;;;;;;8.20;6.20;;;16.60;99.90;;;;;;5055182;28;20060;-62
2023/08/24 04:22:23;;;;;;;9.05;6.53;;;16.50;99.90;;;;;;5072862;28;20049;-62
2023/08/24 04:24:49;;;;;;;11.38;6.88;;;16.40;99.90;;;;;;5072677;28;20376;-63
2023/08/24 04:27:16;;;;;;;8.00;6.50;;;16.40;99.90;;;;;;5072997;28;20060;-62
2023/08/24 04:29:43;;;;;;;11.45;7.50;;;16.40;99.90;;;;;;5072891;28;20064;-62
2023/08/24 04:32:09;;;;;;;9.63;7.30;;;16.40;99.90;;;;;;5071732;28;20052;-62
2023/08/24 04:34:38;;;;;;;11.05;7.18;;;16.40;99.90;;;;;;5072105;28;20056;-62
2023/08/24 04:37:06;;;;;;;9.02;7.03;;;16.30;99.90;;;;;;5055264;28;20051;-62
2023/08/24 04:39:33;;;;;;;10.52;6.88;;;16.30;99.90;;;;;;5072709;28;20048;-62
2023/08/24 04:41:59;;;;;;;8.65;6.45;;;16.20;99.90;;;;;;5071624;28;20049;-62
2023/08/24 04:44:25;;;;;;;11.43;6.57;;;16.30;99.90;;;;;;5072342;28;20416;-62
2023/08/24 04:46:51;;;;;;;9.50;7.03;;;16.20;99.90;;;;;;5072764;28;20052;-62
2023/08/24 04:49:22;;;;;;;9.93;6.25;;;16.30;99.90;;;;;;5039919;28;20139;-62
2023/08/24 04:51:48;;;;;;;13.73;6.97;;;16.30;99.90;;;;;;5071757;28;20460;-63
2023/08/24 04:54:14;;;;;;;10.90;7.47;;;16.40;99.90;;;;;;5072298;28;20044;-62
2023/08/24 04:56:41;;;;;;;8.85;6.30;;;16.30;99.90;;;;;;5071272;28;20049;-62
2023/08/24 04:59:07;;;;;;;11.63;7.18;;;16.50;99.90;;;;;;5072509;28;20372;-63
2023/08/24 05:01:34;;;;;;;12.35;7.30;;;16.40;99.90;;;;;;5070900;28;20143;-63
2023/08/24 05:04:01;;;;;;;10.15;7.10;;;16.50;99.90;;;;;;5048389;28;20040;-62
2023/08/24 05:06:28;;;;;;;12.75;8.05;;;16.50;99.90;;;;;;5069882;28;20056;-62
2023/08/24 05:08:54;;;;;;;13.45;8.13;;;16.50;99.90;;;;;;5072210;28;20494;-62
2023/08/24 05:11:24;;;;;;;10.57;8.10;;;16.50;99.90;;;;;;5072183;28;20142;-63
2023/08/24 05:13:52;;;;;;;10.45;8.10;;;16.60;99.90;;;;;;5072185;28;20048;-63
2023/08/24 05:16:18;;;;;;;10.93;8.75;;;16.70;99.90;;;;;;5072446;28;20071;-62
2023/08/24 05:18:44;;;;;;;12.52;8.85;;;16.60;99.90;;;;;;5072035;28;20364;-62
2023/08/24 05:21:11;;;;;;;12.75;8.80;;;16.70;99.90;;;;;;5070509;28;20087;-61
2023/08/24 05:23:37;;;;;;;11.25;7.93;;;16.80;99.90;;;;;;5071195;28;20350;-62
2023/08/24 05:26:04;;;;;;;9.80;8.02;;;16.80;99.90;;;;;;5072303;28;20051;-62
2023/08/24 05:28:31;;;;;;;15.10;8.68;;;16.80;99.90;;;;;;5072302;28;20120;-63
2023/08/24 05:30:58;;;;;;;12.07;8.63;;;16.90;99.90;;;;;;5071728;28;20056;-61
2023/08/24 05:33:25;;;;;;;11.05;8.60;;;17.00;99.90;;;;;;5071122;28;20349;-61
2023/08/24 05:35:53;;;;;;;12.45;8.85;;;17.20;99.90;;;;;;5071974;28;20074;-62
2023/08/24 05:38:21;;;;;;;10.27;8.88;;;17.30;99.90;;;;;;5067541;28;20426;-61
2023/08/24 05:40:49;;;;;;;13.80;8.98;;;17.30;99.90;;;;;;5071579;28;20048;-62
2023/08/24 05:43:15;;;;;;;11.43;8.43;;;17.70;99.90;;;;;;5057525;28;20047;-62
2023/08/24 05:45:44;;;;;;;10.98;8.50;;;18.20;99.90;;;;;;5072173;28;20433;-61
2023/08/24 05:48:11;;;;;;;11.73;8.00;;;18.90;99.90;;;;;;5054393;28;20409;-62
2023/08/24 05:50:41;;;;;;;11.75;8.23;;;19.40;99.90;;;;;;5053467;28;20417;-62
2023/08/24 05:53:09;;;;;;;9.77;7.55;;;19.90;99.90;;;;;;5071016;28;20048;-62
2023/08/24 05:55:35;;;;;;;10.13;7.97;;;20.20;99.90;;;;;;5071438;28;20044;-62
2023/08/24 05:58:03;;;;;;;11.18;7.03;;;20.40;99.90;;;;;;5071557;28;20048;-62
2023/08/24 06:00:29;;;;;;;12.55;7.68;;;20.70;99.90;;;;;;5071408;28;20412;-62
2023/08/24 06:02:56;;;;;;;10.07;7.18;;;20.60;99.90;;;;;;5067615;28;20040;-62
2023/08/24 06:05:24;;;;;;;8.80;7.47;;;20.30;99.90;;;;;;5073258;28;20044;-62
2023/08/24 06:07:51;;;;;;;12.10;7.43;;;19.80;99.90;;;;;;5071603;28;20114;-61
2023/08/24 06:10:17;;;;;;;8.65;7.32;;;19.30;99.90;;;;;;5036688;28;20118;-63
2023/08/24 06:12:44;;;;;;;8.10;6.57;;;19.60;99.90;;;;;;5055488;28;20044;-61
2023/08/24 06:15:12;;;;;;;9.52;6.78;;;20.20;99.90;;;;;;5071338;28;20383;-61
2023/08/24 06:17:41;;;;;;;9.02;6.90;;;20.90;99.90;;;;;;5072061;28;20091;-61
2023/08/24 06:20:10;;;;;;;11.95;7.00;;;21.50;99.90;;;;;;5071100;28;20059;-63
2023/08/24 06:22:36;;;;;;;8.43;6.30;;;21.80;99.90;;;;;;5071514;28;20614;-62
2023/08/24 06:25:04;;;;;;;8.70;6.22;;;22.40;99.90;;;;;;5059469;28;20044;-61
2023/08/24 06:27:31;;;;;;;9.75;6.65;;;22.70;99.90;;;;;;5091951;28;20048;-62
2023/08/24 06:29:58;;;;;;;9.57;6.57;;;22.80;99.90;;;;;;5091506;28;20044;-61
2023/08/24 06:32:25;;;;;;;8.77;6.85;;;23.00;99.90;;;;;;5057024;28;20063;-62
2023/08/24 06:34:51;;;;;;;11.38;6.70;;;23.20;99.90;;;;;;5078462;28;20040;-61
2023/08/24 06:37:17;;;;;;;10.88;6.95;;;23.10;99.90;;;;;;5053798;28;20045;-62
2023/08/24 06:39:44;;;;;;;7.22;6.40;;;23.10;99.90;;;;;;5011218;28;20064;-62
2023/08/24 06:42:11;;;;;;;10.75;6.75;;;23.10;99.90;;;;;;5051462;28;20072;-62
2023/08/24 06:44:40;;;;;;;7.88;6.65;;;23.20;99.90;;;;;;5033875;28;20041;-62
2023/08/24 06:47:06;;;;;;;10.32;6.80;;;23.30;99.90;;;;;;5051576;28;20099;-62
2023/08/24 06:49:32;;;;;;;9.65;6.85;;;23.70;99.90;;;;;;5051085;28;20060;-62
2023/08/24 06:51:59;;;;;;;11.45;7.50;;;23.70;99.90;;;;;;5051279;28;20056;-63
2023/08/24 06:54:25;;;;;;;9.88;6.82;;;24.10;99.90;;;;;;5051504;28;20099;-62
2023/08/24 06:56:51;;;;;;;11.23;7.25;;;24.10;99.90;;;;;;5050941;28;20106;-62
2023/08/24 06:59:18;;;;;;;9.50;7.30;;;24.00;99.90;;;;;;5051441;28;20045;-63
2023/08/24 07:01:44;;;;;;;10.23;8.02;;;24.00;99.90;;;;;;5051300;28;20041;-62
2023/08/24 07:04:11;;;;;;;10.82;7.00;;;23.90;99.90;;;;;;5051353;28;20048;-62
2023/08/24 07:06:38;;;;;;;11.80;7.53;;;24.10;99.90;;;;;;5021263;28;20420;-62
2023/08/24 07:09:08;;;;;;;11.27;7.45;;;24.10;99.90;;;;;;5054864;28;20059;-62
2023/08/24 07:11:34;;;;;;;9.30;7.20;;;24.10;99.90;;;;;;5054664;28;20095;-63
2023/08/24 07:14:02;;;;;;;10.40;7.50;;;24.10;99.90;;;;;;5054744;28;20492;-62
2023/08/24 07:16:28;;;;;;;11.52;7.93;;;24.20;99.90;;;;;;5037066;28;20372;-62
2023/08/24 07:18:58;;;;;;;9.27;7.63;;;24.40;99.90;;;;;;5054880;28;20063;-62
2023/08/24 07:21:24;;;;;;;10.40;7.75;;;24.50;99.90;;;;;;5054242;28;20060;-63
2023/08/24 07:23:50;;;;;;;12.13;7.60;;;24.30;99.90;;;;;;5036383;28;20355;-63
2023/08/24 07:26:17;;;;;;;9.60;7.82;;;24.10;99.90;;;;;;5054732;28;20052;-63
2023/08/24 07:28:44;;;;;;;9.50;7.55;;;23.60;99.90;;;;;;5020507;28;20048;-63
2023/08/24 07:31:12;;;;;;;11.05;8.20;;;23.60;99.90;;;;;;5054382;28;20396;-63
2023/08/24 07:33:40;;;;;;;11.68;8.32;;;23.20;99.90;;;;;;5036662;28;20064;-62
2023/08/24 07:36:07;;;;;;;9.27;8.05;;;23.00;99.90;;;;;;5054183;28;20590;-62
2023/08/24 07:38:34;;;;;;;9.40;7.28;;;22.90;99.90;;;;;;5053940;28;20056;-62
2023/08/24 07:41:01;;;;;;;12.25;7.88;;;23.10;99.90;;;;;;5053854;28;20060;-62
2023/08/24 07:43:29;;;;;;;10.98;8.07;;;23.10;99.90;;;;;;5037246;28;20056;-62
2023/08/24 07:45:59;;;;;;;10.90;8.35;;;23.20;99.90;;;;;;5037561;28;20041;-62
2023/08/24 07:48:26;;;;;;;10.82;7.82;;;23.20;99.90;;;;;;5053921;28;20369;-62
2023/08/24 07:50:54;;;;;;;11.98;8.52;;;23.20;99.90;;;;;;5053400;28;20049;-62
2023/08/24 07:53:21;;;;;;;11.38;8.35;;;23.20;99.90;;;;;;5053571;28;20128;-62
2023/08/24 07:55:47;;;;;;;10.00;7.78;;;23.20;99.90;;;;;;5073620;28;20056;-62
2023/08/24 07:58:16;;;;;;;10.98;8.35;;;23.30;99.90;;;;;;5056607;28;20064;-62
2023/08/24 08:00:43;;;;;;;10.82;7.60;;;23.30;99.90;;;;;;5055442;28;20040;-62
2023/08/24 08:03:11;;;;;;;11.18;7.68;;;23.50;99.90;;;;;;5055865;28;20406;-62
2023/08/24 08:05:37;;;;;;;10.63;8.23;;;23.50;99.90;;;;;;5066260;28;20056;-62
2023/08/24 08:08:19;;;;;;;9.63;7.75;;;23.60;99.90;;;;;;5073753;28;20093;-63
2023/08/24 08:10:45;;;;;;;14.35;7.93;;;23.70;99.90;;;;;;5072328;28;20140;-63
2023/08/24 08:13:11;;;;;;;11.32;8.23;;;23.60;99.90;;;;;;5073573;28;20361;-62
2023/08/24 08:15:42;;;;;;;9.48;7.95;;;23.70;99.90;;;;;;5057779;28;20056;-62
2023/08/24 08:18:08;;;;;;;12.98;8.75;;;23.90;99.90;;;;;;5073159;28;20048;-62
2023/08/24 08:20:34;;;;;;;9.98;7.97;;;23.80;99.90;;;;;;5073080;28;20064;-62
2023/08/24 08:23:01;;;;;;;10.00;8.05;;;23.90;99.90;;;;;;5055535;28;20337;-62
2023/08/24 08:25:28;;;;;;;14.20;8.00;;;24.00;99.90;;;;;;5072542;28;20456;-61
2023/08/24 08:27:55;;;;;;;10.73;7.50;;;24.00;99.90;;;;;;5065108;28;20383;-62
2023/08/24 08:30:21;;;;;;;12.15;9.02;;;24.20;99.90;;;;;;5073007;28;20372;-62
2023/08/24 08:32:54;;;;;;;9.27;7.63;;;24.30;99.90;;;;;;5056101;28;20078;-61
2023/08/24 08:35:22;;;;;;;10.15;8.20;;;24.40;99.90;;;;;;5072408;28;20048;-62
2023/08/24 08:37:50;;;;;;;10.35;8.25;;;24.50;99.90;;;;;;5072872;28;20052;-62
2023/08/24 08:40:17;;;;;;;12.43;7.93;;;24.60;99.90;;;;;;5055284;28;20056;-62
2023/08/24 08:42:44;;;;;;;12.60;9.55;;;24.80;99.90;;;;;;5072703;28;20110;-62
2023/08/24 08:45:11;;;;;;;10.82;8.65;;;24.60;99.90;;;;;;5072792;28;20048;-62
2023/08/24 08:47:38;;;;;;;10.68;7.78;;;24.80;99.90;;;;;;5072780;28;20082;-62
2023/08/24 08:50:09;;;;;;;10.30;8.00;;;24.90;99.90;;;;;;5072276;28;20370;-62
2023/08/24 08:52:36;;;;;;;12.18;8.10;;;25.00;99.90;;;;;;5072809;28;20358;-63
2023/08/24 08:55:06;;;;;;;9.43;7.75;;;24.80;99.90;;;;;;5072267;28;20045;-63
2023/08/24 08:57:35;;;;;;;10.05;7.38;;;24.80;99.90;;;;;;5054524;28;20045;-62
2023/08/24 09:00:05;;;;;;;11.93;7.55;;;24.90;99.90;;;;;;5072282;28;20093;-62
2023/08/24 09:02:33;;;;;;;10.48;7.63;;;25.00;99.90;;;;;;5072670;28;20048;-62
2023/08/24 09:05:00;;;;;;;9.75;7.85;;;25.20;99.90;;;;;;5056899;28;20052;-62
2023/08/24 09:07:27;;;;;;;10.85;7.15;;;25.30;99.90;;;;;;5072397;28;20071;-62
2023/08/24 09:09:55;;;;;;;10.65;7.15;;;25.30;99.90;;;;;;5071871;28;20048;-63
2023/08/24 09:12:21;;;;;;;12.85;7.82;;;25.40;99.90;;;;;;5072686;28;20056;-63
2023/08/24 09:14:48;;;;;;;8.77;7.43;;;25.40;99.90;;;;;;5072133;28;20045;-63
2023/08/24 09:17:21;;;;;;;9.63;7.38;;;25.40;99.90;;;;;;5072827;28;20092;-62
2023/08/24 09:19:59;;;;;;;10.60;8.00;;;25.30;99.90;;;;;;5054159;28;20067;-62
2023/08/24 09:22:25;;;;;;;10.50;7.50;;;25.30;99.90;;;;;;5054917;28;20121;-62
2023/08/24 09:24:54;;;;;;;9.82;7.32;;;25.20;99.90;;;;;;5072037;28;20041;-63
2023/08/24 09:27:21;;;;;;;12.85;7.50;;;25.20;99.90;;;;;;5072486;28;20060;-62
2023/08/24 09:29:57;;;;;;;10.80;7.70;;;25.20;99.90;;;;;;5069869;28;20052;-63
2023/08/24 09:32:31;;;;;;;9.00;7.75;;;25.10;99.90;;;;;;5072310;28;20048;-63
2023/08/24 09:35:09;;;;;;;9.38;8.02;;;25.00;99.90;;;;;;5062345;28;20048;-62
2023/08/24 09:37:36;;;;;;;11.32;7.82;;;25.00;99.90;;;;;;5072249;28;20106;-62
2023/08/24 09:40:11;;;;;;;11.32;6.95;;;24.80;99.90;;;;;;5052201;28;20051;-62
2023/08/24 09:42:43;;;;;;;8.95;7.40;;;24.80;99.90;;;;;;5034605;28;20059;-62
2023/08/24 09:45:13;;;;;;;8.95;7.60;;;24.70;99.90;;;;;;5051690;28;20484;-62
2023/08/24 09:47:52;;;;;;;8.35;7.50;;;24.60;99.90;;;;;;5052108;28;20193;-62
2023/08/24 09:50:23;;;;;;;7.90;7.03;;;24.60;99.90;;;;;;5035021;28;20060;-61
2023/08/24 09:52:53;;;;;;;9.82;7.50;;;24.60;99.90;;;;;;5017924;28;20118;-61
2023/08/24 09:55:22;;;;;;;9.57;7.85;;;24.60;99.90;;;;;;5051355;28;20044;-62
2023/08/24 09:57:52;;;;;;;9.13;7.40;;;24.50;99.90;;;;;;5052065;28;20062;-62
2023/08/24 10:00:24;;;;;;;11.55;7.70;;;24.50;99.90;;;;;;5051470;28;20063;-62
2023/08/24 10:02:54;;;;;;;10.93;8.38;;;24.40;99.90;;;;;;5051708;28;20049;-61
2023/08/24 10:05:24;;;;;;;10.43;7.93;;;24.40;99.90;;;;;;5051022;28;20106;-62
2023/08/24 10:07:55;;;;;;;10.80;7.75;;;24.40;99.90;;;;;;5033791;28;20052;-62
2023/08/24 10:10:25;;;;;;;10.80;8.07;;;24.40;99.90;;;;;;5033498;28;20388;-62
2023/08/24 10:12:58;;;;;;;12.13;8.18;;;24.30;99.90;;;;;;5052034;28;20049;-62
2023/08/24 10:15:29;;;;;;;9.23;7.13;;;24.30;99.90;;;;;;5051660;28;20056;-62
2023/08/24 10:17:58;;;;;;;9.57;7.78;;;24.20;99.90;;;;;;5034176;28;20103;-62
2023/08/24 10:20:26;;;;;;;10.88;7.80;;;24.10;99.90;;;;;;5034048;28;20373;-62
2023/08/24 10:22:58;;;;;;;11.30;7.80;;;24.10;99.90;;;;;;5051908;28;20140;-62
2023/08/24 10:25:26;;;;;;;9.93;7.97;;;24.00;99.90;;;;;;5033894;28;20382;-62
2023/08/24 10:27:54;;;;;;;11.05;7.75;;;24.00;99.90;;;;;;5034292;28;20067;-61
2023/08/24 10:30:22;;;;;;;10.05;7.88;;;24.00;99.90;;;;;;5051322;28;20049;-61
2023/08/24 10:32:53;;;;;;;9.70;7.97;;;24.00;99.90;;;;;;5033844;28;20114;-61
2023/08/24 10:35:21;;;;;;;9.50;7.72;;;23.90;99.90;;;;;;5051223;28;20057;-61
2023/08/24 10:37:47;;;;;;;11.05;7.97;;;24.00;99.90;;;;;;5050876;28;20045;-62
2023/08/24 10:40:31;;;;;;;10.00;8.27;;;23.90;99.90;;;;;;5053094;28;20053;-61
2023/08/24 10:42:58;;;;;;;9.82;7.55;;;23.90;99.90;;;;;;5038420;28;20118;-61
2023/08/24 10:45:25;;;;;;;11.50;8.73;;;23.90;99.90;;;;;;5037439;28;20045;-62
2023/08/24 10:47:53;;;;;;;10.57;8.32;;;23.90;99.90;;;;;;5037768;28;20408;-61
2023/08/24 10:50:23;;;;;;;10.55;8.27;;;23.90;99.90;;;;;;5054498;28;20052;-62
2023/08/24 10:52:50;;;;;;;9.43;7.78;;;24.00;99.90;;;;;;5055372;28;20454;-61
2023/08/24 10:55:27;;;;;;;9.60;8.25;;;24.00;99.90;;;;;;5037866;28;20049;-62
2023/08/24 10:58:00;;;;;;;9.18;7.82;;;24.10;99.90;;;;;;5055063;28;20353;-61
2023/08/24 11:00:29;;;;;;;15.23;9.02;;;24.10;99.90;;;;;;5036836;28;20111;-62
2023/08/24 11:02:57;;;;;;;8.93;8.02;;;24.10;99.90;;;;;;5038051;28;20060;-61
2023/08/24 11:05:27;;;;;;;10.00;8.60;;;24.30;99.90;;;;;;5054107;28;20049;-61
2023/08/24 11:08:00;;;;;;;9.45;8.48;;;24.30;99.90;;;;;;5037952;28;20102;-62
2023/08/24 11:10:42;;;;;;;9.85;8.82;;;24.40;99.90;;;;;;5037991;28;20045;-61
2023/08/24 11:13:22;;;;;;;12.00;8.63;;;24.40;99.90;;;;;;5054889;28;20106;-61
2023/08/24 11:15:54;;;;;;;11.73;9.05;;;24.50;99.90;;;;;;5054410;28;20114;-61
2023/08/24 11:18:30;;;;;;;13.60;12.23;;;24.50;99.90;;;;;;5037905;28;20060;-63
2023/08/24 11:21:00;;;;;;;13.10;10.02;;;24.50;99.90;;;;;;5054094;28;20377;-62
2023/08/24 11:23:30;;;;;;;10.38;9.15;;;24.60;99.90;;;;;;5054362;28;20055;-62
2023/08/24 11:25:59;;;;;;;10.68;9.57;;;24.70;99.90;;;;;;5054390;28;20068;-62
2023/08/24 11:28:27;;;;;;;12.25;9.52;;;24.80;99.90;;;;;;5054533;28;20044;-62
2023/08/24 11:30:55;;;;;;;13.77;9.43;;;24.90;99.90;;;;;;5053831;28;20072;-62
2023/08/24 11:33:34;;;;;;;10.85;9.77;;;25.00;99.90;;;;;;5055021;28;20358;-62
2023/08/24 11:36:03;;;;;;;10.95;9.60;;;25.00;99.90;;;;;;5020892;28;20056;-62
2023/08/24 11:38:38;;;;;;;13.57;10.10;;;25.10;99.90;;;;;;5036454;28;20064;-63
2023/08/24 11:41:14;;;;;;;15.75;10.88;;;25.10;99.90;;;;;;5053627;28;20373;-62
2023/08/24 11:43:43;;;;;;;11.00;9.23;;;25.10;99.90;;;;;;5030758;28;20083;-63
2023/08/24 11:46:09;;;;;;;11.65;9.35;;;25.20;99.90;;;;;;5000186;28;20053;-62
2023/08/24 11:48:39;;;;;;;11.68;10.07;;;25.20;99.90;;;;;;5034151;28;20057;-63
2023/08/24 11:51:09;;;;;;;11.45;9.05;;;25.10;99.90;;;;;;5033070;28;20111;-62
2023/08/24 11:53:46;;;;;;;15.45;10.27;;;25.20;99.90;;;;;;5016485;28;20045;-63
2023/08/24 11:56:16;;;;;;;11.18;9.75;;;25.20;99.90;;;;;;5036766;28;20052;-62
2023/08/24 11:58:49;;;;;;;9.98;8.82;;;25.20;99.90;;;;;;5053744;28;20383;-62
2023/08/24 12:01:19;;;;;;;11.90;10.73;;;25.20;99.90;;;;;;5036094;28;20044;-63
2023/08/24 12:03:45;;;;;;;11.63;10.32;;;25.20;99.90;;;;;;5053791;28;20089;-62
2023/08/24 12:06:13;;;;;;;12.68;11.25;;;25.20;99.90;;;;;;5054073;28;20053;-62
2023/08/24 12:08:48;;;;;;;12.48;10.15;;;25.20;99.90;;;;;;5019813;28;20131;-63
2023/08/24 12:11:17;;;;;;;13.25;9.93;;;25.30;99.90;;;;;;5054112;28;20049;-62
2023/08/24 12:13:48;;;;;;;12.93;9.88;;;25.30;99.90;;;;;;5052596;28;20053;-62
2023/08/24 12:16:20;;;;;;;11.50;9.98;;;25.40;99.90;;;;;;5000630;28;20057;-62
2023/08/24 12:18:59;;;;;;;12.05;10.23;;;25.50;99.90;;;;;;5033850;28;20045;-63
2023/08/24 12:21:29;;;;;;;11.32;10.23;;;25.60;99.90;;;;;;4999587;28;20045;-62
2023/08/24 12:24:08;;;;;;;13.15;11.70;;;25.60;99.90;;;;;;5018526;28;20060;-62
2023/08/24 12:26:36;;;;;;;12.25;10.27;;;25.70;99.90;;;;;;5053904;28;20074;-62
2023/08/24 12:29:05;;;;;;;13.43;11.07;;;25.70;99.90;;;;;;5053054;28;20111;-62
2023/08/24 12:31:34;;;;;;;13.13;10.63;;;25.70;99.90;;;;;;5053247;28;20373;-61
2023/08/24 12:34:05;;;;;;;11.68;10.48;;;25.70;99.90;;;;;;5035334;28;20049;-62
2023/08/24 12:36:32;;;;;;;;;;;25.70;99.90;;;;;;5053461;28;20162;-62
2023/08/24 12:38:59;;;;;;;13.45;10.52;;;25.80;99.90;;;;;;5048144;28;19961;-62
2023/08/24 12:41:25;;;;;;;11.93;10.43;;;25.70;99.90;;;;;;5072237;28;20044;-62
2023/08/24 12:43:52;;;;;;;11.55;10.25;;;25.80;99.90;;;;;;5071495;28;20059;-62
2023/08/24 12:46:18;;;;;;;11.57;10.32;;;25.90;99.90;;;;;;5055163;28;20056;-62
2023/08/24 12:48:45;;;;;;;14.10;10.55;;;26.00;99.90;;;;;;5054770;28;20044;-62